METAR

METAR LDZA 172000Z VRB02KT 4000 BR FEW001 10/09 Q1018 TEMPO 2000 =
METAR LDSP 172000Z 31009KT CAVOK 19/11 Q1019 NOSIG=
METAR LDDU 172000Z 00000KT CAVOK 17/15 Q1019 NOSIG =
METAR LDZD 172000Z 00000KT CAVOK 11/10 Q1019 NOSIG =
METAR LDPL 172000Z 06003KT CAVOK 13/12 Q1019 NOSIG=
METAR LDOS 172000Z 03002KT CAVOK 14/12 Q1018=
METAR LDRI 172000Z 13005KT 9999 FEW040 14/13 Q1019=

TAF

TAF LDZA 171725Z 1718/1818 20004KT 9999 SCT030
                 TX20/1814Z TN08/1804Z
    PROB30 TEMPO 1720/1807 1500 MIFG BR
           BECMG 1807/1809 24008KT=
TAF LDSP 171725Z 1718/1818 31009KT CAVOK
                 TX23/1812Z TN14/1804Z
           BECMG 1811/1813 23008KT
           BECMG 1814/1816 28008KT=
TAF LDDU 171725Z 1718/1818 07006KT CAVOK
                 TX22/1811Z TN15/1805Z
           TEMPO 1800/1806 08008KT=
TAF LDZD 171725Z 1718/1818 VRB02KT CAVOK
                 TX22/1813Z TN08/1803Z
    PROB40 TEMPO 1720/1805 3000 BR MIFG
    PROB30 TEMPO 1723/1805 0900 FG
           BECMG 1810/1812 24007KT
           BECMG 1814/1816 30005KT=
TAF LDPL 171725Z 1718/1818 VRB02KT 9999 SCT015
                 TX21/1812Z TN10/1802Z
    PROB40 TEMPO 1718/1806 3000 MIFG BR
    PROB30 TEMPO 1721/1806 0800 FG
    PROB40 TEMPO 1812/1816 25008KT=
TAF LDOS 171725Z 1718/1818 VRB02KT CAVOK
                 TX23/1813Z TN09/1804Z
           BECMG 1800/1802 3000 BR
          PROB40 1802/1807 0100 FG VV001
           BECMG 1806/1809 9999 NSW
    PROB30 TEMPO 1806/1809 BKN003=
TAF LDRI 171725Z 1718/1818 VRB02KT 9999 SCT030
                 TX20/1812Z TN12/1804Z=

SIGMET

AIRMET

Remark

Ukoliko se brzina i smjer vjetra ne mogu odrediti zbog privremenog kvara sustava/indikatora,
informacija o vjetru u METAR izvješću bit će prikazana kao "/////KT".

 

Disclaimer

 

In case of temporary system/sensor failure, wind speed and direction data will be represented as "/////KT" in METAR report.

 

If you cannot log in with your user account, please contact stjepko.jancijev@crocontrol.hr.
Specifically, the website deactivates user accounts that have not been used for more than 365 days, so they must be reactivated.
 

         

      Politika MET podataka      

 

Ukoliko se svojim korisničkim računom ne možete logirati na web stranicu, molim vas da se obratite na stjepko.jancijev@crocontrol.hr.

Naime, web stranica deaktivira korisničke račune koji nisu korišteni više od 365 dana te ih je potrebno ponovno aktivirati.